createdAt,value
2022-09-15T00:01:51.793Z,6.07
2022-09-15T00:04:18.357Z,6.15
2022-09-15T00:06:44.960Z,5.70
2022-09-15T00:09:11.453Z,6.15
2022-09-15T00:11:39.221Z,6.43
2022-09-15T00:14:08.242Z,5.55
2022-09-15T00:16:34.771Z,6.13
2022-09-15T00:19:01.927Z,6.30
2022-09-15T00:21:31.830Z,5.45
2022-09-15T00:24:00.506Z,5.68
2022-09-15T00:26:29.440Z,5.43
2022-09-15T00:28:57.273Z,5.45
2022-09-15T00:31:25.315Z,5.78
2022-09-15T00:33:56.759Z,5.45
2022-09-15T00:36:24.891Z,4.80
2022-09-15T00:38:51.635Z,4.90
2022-09-15T00:41:20.411Z,6.15
2022-09-15T00:44:05.931Z,4.95
2022-09-15T00:46:39.718Z,5.43
2022-09-15T00:49:29.513Z,4.97
2022-09-15T00:52:07.297Z,4.35
2022-09-15T00:54:48.994Z,5.03
2022-09-15T00:57:29.872Z,5.10
2022-09-15T00:59:59.618Z,5.05
2022-09-15T01:02:29.521Z,5.28
2022-09-15T01:04:58.568Z,5.05
2022-09-15T01:07:46.435Z,5.07
2022-09-15T01:10:34.771Z,5.13
2022-09-15T01:13:04.457Z,4.50
2022-09-15T01:15:54.962Z,4.37
2022-09-15T01:18:44.621Z,4.72
2022-09-15T01:21:18.062Z,4.85
2022-09-15T01:24:11.937Z,4.18
2022-09-15T01:26:56.663Z,4.10
2022-09-15T01:29:47.775Z,4.35
2022-09-15T01:33:07.843Z,4.40
2022-09-15T01:35:56.256Z,4.45
2022-09-15T01:38:37.952Z,4.10
2022-09-15T01:41:18.699Z,4.10
2022-09-15T01:43:53.734Z,4.40
2022-09-15T01:46:24.012Z,4.20
2022-09-15T01:48:53.809Z,3.90
2022-09-15T01:51:21.649Z,4.07
2022-09-15T01:53:49.758Z,4.15
2022-09-15T01:56:16.398Z,4.13
2022-09-15T01:58:42.951Z,4.47
2022-09-15T02:01:23.564Z,4.40
2022-09-15T02:06:37.193Z,3.83
2022-09-15T02:09:17.554Z,4.45
2022-09-15T02:12:08.084Z,4.35
2022-09-15T02:14:55.942Z,5.05
2022-09-15T02:17:24.193Z,4.32
2022-09-15T02:20:18.432Z,4.78
2022-09-15T02:22:52.254Z,3.80
2022-09-15T02:25:24.639Z,3.75
2022-09-15T02:27:55.193Z,4.20
2022-09-15T02:32:56.748Z,4.28
2022-09-15T02:35:26.075Z,4.15
2022-09-15T02:37:53.917Z,4.25
2022-09-15T02:40:21.088Z,4.07
2022-09-15T02:42:56.688Z,4.65
2022-09-15T02:45:25.523Z,4.22
2022-09-15T02:47:52.574Z,3.70
2022-09-15T02:50:20.497Z,3.97
2022-09-15T02:52:47.431Z,3.92
2022-09-15T02:55:13.875Z,3.95
2022-09-15T02:57:40.339Z,4.32
2022-09-15T03:00:13.318Z,3.65
2022-09-15T03:02:41.103Z,3.65
2022-09-15T03:05:08.981Z,3.60
2022-09-15T03:07:37.705Z,4.20
2022-09-15T03:10:06.288Z,3.53
2022-09-15T03:12:41.502Z,3.88
2022-09-15T03:15:10.169Z,3.45
2022-09-15T03:17:38.519Z,3.13
2022-09-15T03:20:06.891Z,3.20
2022-09-15T03:22:33.809Z,3.50
2022-09-15T03:25:01.177Z,3.15
2022-09-15T03:27:27.838Z,3.65
2022-09-15T03:29:54.287Z,3.08
2022-09-15T03:32:20.738Z,3.45
2022-09-15T03:34:47.266Z,2.88
2022-09-15T03:37:14.062Z,3.03
2022-09-15T03:39:40.514Z,3.15
2022-09-15T03:42:08.374Z,3.25
2022-09-15T03:44:35.779Z,3.38
2022-09-15T03:47:03.400Z,3.30
2022-09-15T03:49:30.061Z,3.22
2022-09-15T03:51:56.948Z,3.25
2022-09-15T03:54:23.386Z,3.00
2022-09-15T03:56:51.932Z,2.72
2022-09-15T03:59:19.390Z,2.88
2022-09-15T04:01:46.634Z,2.83
2022-09-15T04:04:14.204Z,2.88
2022-09-15T04:06:41.232Z,3.17
2022-09-15T04:09:07.922Z,2.85
2022-09-15T04:11:34.506Z,2.85
2022-09-15T04:14:01.157Z,3.38
2022-09-15T04:16:27.997Z,3.08
2022-09-15T04:18:55.486Z,2.53
2022-09-15T04:21:24.969Z,2.17
2022-09-15T04:23:51.792Z,2.50
2022-09-15T04:26:22.581Z,2.38
2022-09-15T04:28:49.177Z,2.30
2022-09-15T04:31:16.851Z,2.00
2022-09-15T04:33:45.162Z,2.25
2022-09-15T04:36:17.501Z,2.00
2022-09-15T04:38:44.579Z,2.30
2022-09-15T04:41:11.930Z,1.80
2022-09-15T04:43:38.559Z,1.92
2022-09-15T04:46:05.380Z,2.00
2022-09-15T04:48:32.604Z,2.35
2022-09-15T04:51:04.614Z,2.15
2022-09-15T04:53:31.581Z,1.85
2022-09-15T04:56:08.670Z,1.92
2022-09-15T04:58:45.109Z,1.88
2022-09-15T05:01:20.784Z,2.20
2022-09-15T05:03:47.764Z,2.00
2022-09-15T05:06:17.324Z,2.10
2022-09-15T05:08:46.870Z,1.90
2022-09-15T05:11:14.102Z,2.22
2022-09-15T05:13:40.779Z,2.20
2022-09-15T05:16:12.043Z,1.85
2022-09-15T05:18:40.146Z,2.00
2022-09-15T05:21:08.559Z,2.03
2022-09-15T05:23:36.250Z,1.98
2022-09-15T05:26:06.613Z,2.15
2022-09-15T05:28:34.924Z,1.98
2022-09-15T05:31:01.874Z,1.83
2022-09-15T05:33:28.394Z,2.35
2022-09-15T05:35:56.854Z,2.17
2022-09-15T05:38:25.035Z,2.20
2022-09-15T05:40:51.852Z,2.10
2022-09-15T05:43:18.731Z,1.92
2022-09-15T05:45:54.436Z,2.00
2022-09-15T05:48:21.255Z,1.98
2022-09-15T05:50:52.371Z,1.70
2022-09-15T05:53:19.872Z,1.80
2022-09-15T05:55:47.061Z,1.92
2022-09-15T05:58:14.090Z,1.80
2022-09-15T06:00:41.787Z,2.83
2022-09-15T06:03:14.605Z,1.70
2022-09-15T06:05:41.530Z,1.98
2022-09-15T06:08:08.305Z,2.13
2022-09-15T06:10:34.938Z,1.90
2022-09-15T06:13:01.382Z,1.80
2022-09-15T06:15:28.003Z,2.13
2022-09-15T06:17:54.584Z,1.80
2022-09-15T06:20:21.420Z,1.90
2022-09-15T06:22:48.224Z,2.30
2022-09-15T06:25:15.310Z,1.85
2022-09-15T06:27:42.170Z,2.15
2022-09-15T06:30:10.286Z,1.75
2022-09-15T06:32:36.873Z,1.75
2022-09-15T06:35:07.198Z,1.70
2022-09-15T06:37:34.758Z,1.70
2022-09-15T06:40:02.334Z,1.77
2022-09-15T06:42:28.805Z,1.75
2022-09-15T06:44:55.504Z,1.90
2022-09-15T06:47:21.957Z,1.88
2022-09-15T06:49:48.591Z,1.60
2022-09-15T06:52:15.157Z,1.20
2022-09-15T06:54:41.625Z,2.30
2022-09-15T06:57:08.100Z,1.90
2022-09-15T06:59:34.602Z,1.70
2022-09-15T07:02:04.855Z,1.52
2022-09-15T07:04:33.460Z,1.20
2022-09-15T07:07:00.088Z,1.60
2022-09-15T07:09:26.585Z,1.42
2022-09-15T07:11:53.219Z,1.48
2022-09-15T07:14:19.789Z,1.42
2022-09-15T07:16:46.340Z,2.00
2022-09-15T07:19:13.044Z,1.38
2022-09-15T07:21:39.619Z,1.75
2022-09-15T07:24:09.317Z,1.80
2022-09-15T07:26:35.879Z,1.70
2022-09-15T07:29:06.090Z,1.40
2022-09-15T07:31:34.565Z,1.52
2022-09-15T07:34:02.163Z,1.60
2022-09-15T07:36:29.319Z,1.65
2022-09-15T07:38:55.877Z,1.20
2022-09-15T07:41:25.078Z,1.52
2022-09-15T07:43:54.007Z,1.50
2022-09-15T07:46:22.096Z,1.60
2022-09-15T07:48:50.711Z,1.73
2022-09-15T07:51:17.557Z,1.80
2022-09-15T07:53:46.226Z,1.92
2022-09-15T07:56:13.414Z,2.15
2022-09-15T07:58:40.553Z,1.70
2022-09-15T08:01:11.187Z,1.40
2022-09-15T08:03:42.941Z,1.40
2022-09-15T08:06:10.477Z,1.20
2022-09-15T08:08:39.010Z,1.48
2022-09-15T08:11:09.841Z,0.95
2022-09-15T08:13:36.798Z,1.38
2022-09-15T08:16:15.288Z,1.33
2022-09-15T08:18:43.432Z,1.55
2022-09-15T08:21:15.794Z,1.20
2022-09-15T08:23:42.650Z,1.30
2022-09-15T08:26:14.195Z,1.58
2022-09-15T08:28:41.101Z,1.35
2022-09-15T08:31:09.460Z,0.95
2022-09-15T08:33:36.581Z,1.00
2022-09-15T08:36:06.225Z,1.10
2022-09-15T08:38:33.458Z,1.50
2022-09-15T08:41:07.550Z,1.20
2022-09-15T08:43:53.678Z,1.20
2022-09-15T08:46:32.220Z,1.13
2022-09-15T08:49:50.031Z,1.42
2022-09-15T08:52:23.242Z,1.08
2022-09-15T08:54:55.367Z,1.25
2022-09-15T08:57:25.756Z,1.30
2022-09-15T08:59:54.516Z,1.30
2022-09-15T09:02:33.141Z,1.80
2022-09-15T09:05:29.487Z,1.13
2022-09-15T09:08:16.681Z,1.30
2022-09-15T09:10:51.646Z,0.77
2022-09-15T09:13:49.177Z,1.02
2022-09-15T09:16:43.782Z,1.00
2022-09-15T09:19:45.498Z,1.33
2022-09-15T09:22:18.004Z,1.40
2022-09-15T09:24:48.385Z,0.80
2022-09-15T09:27:20.741Z,1.27
2022-09-15T09:29:49.970Z,1.27
2022-09-15T09:32:21.771Z,0.98
2022-09-15T09:35:06.358Z,1.10
2022-09-15T09:37:33.600Z,1.15
2022-09-15T09:40:00.628Z,1.33
2022-09-15T09:42:30.905Z,0.90
2022-09-15T09:44:57.533Z,0.90
2022-09-15T09:47:30.199Z,1.13
2022-09-15T09:49:56.717Z,0.85
2022-09-15T09:52:34.313Z,1.00
2022-09-15T09:55:26.957Z,1.00
2022-09-15T09:57:54.317Z,1.20
2022-09-15T10:00:37.496Z,1.30
2022-09-15T10:03:22.986Z,1.20
2022-09-15T10:06:04.101Z,1.20
2022-09-15T10:08:32.889Z,1.38
2022-09-15T10:11:10.343Z,1.20
2022-09-15T10:13:51.029Z,0.98
2022-09-15T10:18:50.955Z,1.00
2022-09-15T10:21:24.704Z,1.23
2022-09-15T10:23:51.227Z,1.33
2022-09-15T10:26:30.034Z,1.33
2022-09-15T10:29:15.248Z,1.30
2022-09-15T10:31:42.897Z,1.20
2022-09-15T10:34:25.572Z,1.30
2022-09-15T10:36:59.322Z,1.30
2022-09-15T10:39:44.619Z,1.20
2022-09-15T10:42:14.357Z,1.10
2022-09-15T10:45:09.359Z,1.53
2022-09-15T10:48:08.181Z,1.55
2022-09-15T10:50:47.702Z,1.30
2022-09-15T10:53:23.427Z,1.60
2022-09-15T10:56:25.867Z,1.50
2022-09-15T10:59:04.980Z,1.27
2022-09-15T11:01:46.473Z,1.42
2022-09-15T11:04:26.153Z,1.15
2022-09-15T11:07:04.885Z,1.33
2022-09-15T11:09:40.380Z,1.67
2022-09-15T11:12:41.976Z,0.98
2022-09-15T11:15:14.452Z,1.30
2022-09-15T11:17:43.963Z,1.38
2022-09-15T11:20:13.443Z,1.25
2022-09-15T11:22:49.813Z,1.05
2022-09-15T11:25:24.054Z,1.52
2022-09-15T11:28:06.869Z,1.20
2022-09-15T11:30:40.416Z,1.35
2022-09-15T11:33:28.110Z,1.20
2022-09-15T11:36:09.338Z,1.33
2022-09-15T11:38:43.126Z,1.25
2022-09-15T11:41:26.545Z,1.40
2022-09-15T11:44:20.767Z,1.30
2022-09-15T11:46:51.673Z,1.48
2022-09-15T11:49:25.971Z,1.33
2022-09-15T11:51:59.295Z,1.15
2022-09-15T11:54:38.059Z,1.30
2022-09-15T11:57:05.529Z,1.40
2022-09-15T11:59:43.739Z,1.20
2022-09-15T12:02:38.282Z,1.33
2022-09-15T12:05:30.595Z,1.25
2022-09-15T12:08:06.702Z,1.38
2022-09-15T12:10:48.349Z,1.10
2022-09-15T12:13:26.664Z,1.15
2022-09-15T12:15:55.460Z,1.40
2022-09-15T12:18:54.865Z,1.60
2022-09-15T12:21:37.092Z,1.33
2022-09-15T12:24:38.059Z,1.25
2022-09-15T12:27:05.455Z,1.33
2022-09-15T12:29:42.038Z,1.10
2022-09-15T12:32:29.450Z,1.25
2022-09-15T12:35:20.213Z,0.82
2022-09-15T12:37:48.152Z,1.20
2022-09-15T12:40:33.669Z,1.10
2022-09-15T12:43:23.129Z,1.48
2022-09-15T12:46:01.874Z,0.80
2022-09-15T12:48:31.946Z,1.00
2022-09-15T12:51:03.651Z,1.08
2022-09-15T12:53:38.159Z,1.20
2022-09-15T12:56:11.592Z,0.82
2022-09-15T12:58:42.067Z,0.93
2022-09-15T13:03:51.375Z,0.90
2022-09-15T13:06:35.156Z,1.88
2022-09-15T13:09:01.663Z,1.00
2022-09-15T13:11:34.814Z,0.90
2022-09-15T13:14:11.180Z,1.67
2022-09-15T13:16:40.827Z,1.10
2022-09-15T13:19:12.441Z,1.05
2022-09-15T13:21:42.459Z,1.17
2022-09-15T13:24:20.107Z,1.20
2022-09-15T13:26:52.895Z,1.45
2022-09-15T13:29:20.189Z,1.55
2022-09-15T13:31:59.390Z,0.98
2022-09-15T13:38:20.066Z,1.02
2022-09-15T13:41:02.263Z,1.20
2022-09-15T13:43:59.890Z,1.50
2022-09-15T13:46:38.355Z,1.48
2022-09-15T13:49:22.394Z,0.93
2022-09-15T13:52:22.517Z,1.58
2022-09-15T13:55:17.873Z,1.15
2022-09-15T14:00:44.342Z,1.13
2022-09-15T14:03:16.264Z,1.10
2022-09-15T14:05:43.437Z,1.15
2022-09-15T14:08:15.937Z,1.02
2022-09-15T14:11:08.488Z,1.02
2022-09-15T14:13:38.178Z,1.20
2022-09-15T14:16:19.405Z,1.08
2022-09-15T14:18:47.086Z,1.30
2022-09-15T14:21:28.299Z,1.00
2022-09-15T14:23:58.047Z,1.10
2022-09-15T14:26:28.236Z,1.40
2022-09-15T14:29:00.089Z,1.20
2022-09-15T14:31:29.303Z,1.25
2022-09-15T14:33:56.291Z,1.30
2022-09-15T14:36:26.506Z,1.42
2022-09-15T14:39:25.473Z,1.50
2022-09-15T14:41:52.079Z,1.33
2022-09-15T14:47:28.206Z,1.63
2022-09-15T14:50:15.915Z,1.30
2022-09-15T14:52:49.173Z,1.17
2022-09-15T14:55:41.094Z,1.10
2022-09-15T14:58:21.826Z,1.02
2022-09-15T15:01:15.671Z,0.98
2022-09-15T15:03:55.679Z,0.98
2022-09-15T15:06:35.580Z,1.30
2022-09-15T15:09:25.372Z,1.08
2022-09-15T15:11:59.045Z,1.30
2022-09-15T15:14:25.706Z,1.17
2022-09-15T15:17:08.201Z,1.40
2022-09-15T15:19:40.591Z,1.10
2022-09-15T15:22:23.202Z,1.23
2022-09-15T15:24:52.517Z,1.10
2022-09-15T15:27:34.602Z,1.52
2022-09-15T15:30:32.395Z,1.30
2022-09-15T15:33:27.561Z,1.27
2022-09-15T15:36:07.674Z,1.40
2022-09-15T15:38:37.020Z,1.42
2022-09-15T15:41:06.534Z,1.20
2022-09-15T15:43:36.614Z,1.40
2022-09-15T15:46:05.753Z,0.90
2022-09-15T15:48:38.387Z,1.20
2022-09-15T15:51:07.492Z,1.30
2022-09-15T15:53:34.427Z,1.05
2022-09-15T15:56:01.167Z,1.60
2022-09-15T15:58:28.047Z,1.00
2022-09-15T16:00:56.747Z,1.55
2022-09-15T16:03:24.720Z,1.35
2022-09-15T16:05:58.034Z,1.50
2022-09-15T16:08:33.267Z,1.17
2022-09-15T16:11:03.565Z,1.30
2022-09-15T16:13:30.437Z,1.30
2022-09-15T16:15:58.849Z,1.40
2022-09-15T16:18:25.933Z,1.50
2022-09-15T16:20:53.213Z,0.90
2022-09-15T16:23:22.721Z,1.40
2022-09-15T16:26:04.243Z,1.47
2022-09-15T16:28:31.711Z,1.30
2022-09-15T16:30:59.199Z,1.30
2022-09-15T16:33:26.601Z,1.27
2022-09-15T16:36:06.889Z,1.20
2022-09-15T16:38:36.024Z,1.25
2022-09-15T16:41:03.680Z,1.00
2022-09-15T16:43:30.609Z,1.05
2022-09-15T16:45:57.302Z,1.38
2022-09-15T16:48:23.828Z,1.27
2022-09-15T16:51:16.084Z,1.40
2022-09-15T16:53:40.867Z,1.33
2022-09-15T16:56:11.271Z,0.80
2022-09-15T16:58:38.069Z,1.02
2022-09-15T17:01:05.008Z,0.77
2022-09-15T17:03:31.634Z,0.90
2022-09-15T17:06:00.311Z,0.88
2022-09-15T17:08:29.624Z,1.13
2022-09-15T17:10:57.696Z,0.88
2022-09-15T17:13:29.322Z,1.25
2022-09-15T17:15:58.111Z,1.25
2022-09-15T17:18:25.769Z,1.27
2022-09-15T17:20:52.526Z,1.17
2022-09-15T17:23:31.019Z,1.20
2022-09-15T17:26:03.230Z,1.15
2022-09-15T17:28:33.460Z,1.05
2022-09-15T17:31:02.745Z,0.90
2022-09-15T17:33:30.998Z,1.08
2022-09-15T17:35:58.231Z,0.82
2022-09-15T17:38:25.549Z,0.80
2022-09-15T17:40:52.981Z,0.68
2022-09-15T17:43:22.124Z,1.10
2022-09-15T17:45:49.869Z,1.40
2022-09-15T17:48:16.774Z,0.90
2022-09-15T17:50:43.843Z,1.10
2022-09-15T17:53:13.742Z,1.20
2022-09-15T17:55:40.504Z,1.13
2022-09-15T17:58:07.587Z,1.10
2022-09-15T18:00:37.083Z,0.90
2022-09-15T18:03:11.052Z,1.65
2022-09-15T18:05:37.755Z,0.90
2022-09-15T18:08:05.524Z,0.95
2022-09-15T18:10:34.914Z,1.25
2022-09-15T18:13:02.428Z,1.02
2022-09-15T18:15:32.674Z,1.08
2022-09-15T18:18:04.029Z,1.10
2022-09-15T18:20:32.791Z,1.17
2022-09-15T18:23:00.169Z,0.90
2022-09-15T18:25:33.620Z,1.35
2022-09-15T18:28:02.461Z,1.00
2022-09-15T18:30:32.186Z,1.13
2022-09-15T18:32:59.538Z,1.00
2022-09-15T18:35:26.819Z,1.00
2022-09-15T18:37:59.186Z,1.40
2022-09-15T18:40:27.194Z,1.40
2022-09-15T18:42:54.124Z,1.35
2022-09-15T18:45:20.939Z,1.20
2022-09-15T18:47:49.927Z,1.17
2022-09-15T18:50:18.762Z,0.93
2022-09-15T18:52:45.291Z,1.10
2022-09-15T18:55:15.328Z,1.05
2022-09-15T18:57:42.632Z,1.30
2022-09-15T19:00:24.073Z,1.13
2022-09-15T19:02:58.139Z,0.90
2022-09-15T19:05:25.585Z,1.08
2022-09-15T19:07:52.234Z,1.13
2022-09-15T19:10:18.789Z,1.00
2022-09-15T19:12:45.498Z,1.00
2022-09-15T19:15:13.672Z,1.00
2022-09-15T19:17:42.005Z,0.93
2022-09-15T19:20:10.838Z,1.00
2022-09-15T19:22:37.819Z,0.90
2022-09-15T19:25:05.131Z,0.90
2022-09-15T19:27:32.245Z,1.08
2022-09-15T19:29:58.849Z,1.13
2022-09-15T19:32:25.686Z,0.98
2022-09-15T19:34:52.796Z,1.67
2022-09-15T19:37:21.185Z,0.88
2022-09-15T19:39:48.532Z,0.95
2022-09-15T19:44:42.580Z,0.98
2022-09-15T19:47:09.419Z,1.20
2022-09-15T19:49:36.110Z,1.23
2022-09-15T19:52:02.785Z,1.20
2022-09-15T19:54:30.487Z,1.20
2022-09-15T19:56:57.504Z,0.98
2022-09-15T19:59:28.751Z,1.35
2022-09-15T20:01:57.532Z,1.10
2022-09-15T20:07:08.151Z,1.08
2022-09-15T20:09:34.675Z,1.13
2022-09-15T20:12:04.107Z,1.10
2022-09-15T20:14:31.468Z,0.85
2022-09-15T20:17:00.971Z,1.15
2022-09-15T20:19:28.667Z,1.30
2022-09-15T20:21:55.400Z,1.30
2022-09-15T20:24:22.348Z,1.10
2022-09-15T20:26:49.226Z,1.13
2022-09-15T20:29:16.315Z,1.00
2022-09-15T20:31:43.508Z,0.82
2022-09-15T20:34:10.151Z,1.10
2022-09-15T20:36:38.862Z,1.33
2022-09-15T20:39:09.367Z,1.10
2022-09-15T20:41:36.298Z,1.20
2022-09-15T20:44:03.103Z,2.25
2022-09-15T20:46:31.245Z,1.20
2022-09-15T20:48:57.753Z,1.30
2022-09-15T20:51:26.903Z,1.10
2022-09-15T20:53:55.751Z,1.10
2022-09-15T20:56:25.417Z,1.30
2022-09-15T20:58:54.147Z,1.27
2022-09-15T21:01:28.694Z,1.20
2022-09-15T21:03:55.538Z,1.40
2022-09-15T21:06:24.395Z,1.33
2022-09-15T21:08:51.375Z,1.23
2022-09-15T21:11:19.736Z,1.25
2022-09-15T21:13:47.570Z,1.60
2022-09-15T21:16:20.578Z,1.10
2022-09-15T21:18:48.607Z,1.17
2022-09-15T21:21:24.753Z,1.15
2022-09-15T21:23:56.431Z,1.20
2022-09-15T21:26:25.724Z,1.48
2022-09-15T21:28:53.361Z,1.40
2022-09-15T21:31:22.590Z,1.08
2022-09-15T21:33:49.727Z,1.13
2022-09-15T21:36:24.872Z,1.00
2022-09-15T21:38:53.271Z,1.00
2022-09-15T21:41:22.279Z,1.00
2022-09-15T21:43:49.819Z,1.05
2022-09-15T21:46:19.920Z,1.20
2022-09-15T21:48:47.605Z,1.10
2022-09-15T21:51:15.921Z,1.05
2022-09-15T21:53:43.138Z,1.45
2022-09-15T21:56:13.319Z,1.30
2022-09-15T21:58:43.177Z,1.10
2022-09-15T22:01:19.139Z,1.25
2022-09-15T22:03:51.503Z,1.10
2022-09-15T22:06:19.366Z,1.02
2022-09-15T22:08:46.712Z,1.17
2022-09-15T22:11:13.707Z,1.40
2022-09-15T22:13:42.942Z,1.20
2022-09-15T22:16:19.034Z,1.60
2022-09-15T22:18:45.612Z,1.35
2022-09-15T22:21:27.141Z,1.55
2022-09-15T22:23:56.304Z,1.20
2022-09-15T22:26:27.371Z,1.23
2022-09-15T22:28:54.648Z,1.30
2022-09-15T22:31:22.875Z,1.25
2022-09-15T22:33:49.828Z,1.30
2022-09-15T22:36:18.963Z,1.30
2022-09-15T22:38:46.462Z,1.30
2022-09-15T22:41:15.540Z,1.40
2022-09-15T22:43:43.131Z,1.08
2022-09-15T22:46:09.939Z,0.98
2022-09-15T22:48:40.938Z,1.10
2022-09-15T22:51:10.755Z,1.50
2022-09-15T22:53:37.247Z,1.20
2022-09-15T22:56:10.369Z,1.40
2022-09-15T22:58:38.000Z,1.08
2022-09-15T23:01:07.055Z,1.02
2022-09-15T23:03:33.597Z,1.10
2022-09-15T23:06:00.728Z,1.10
2022-09-15T23:08:27.470Z,1.20
2022-09-15T23:11:01.690Z,1.40
2022-09-15T23:13:28.153Z,1.30
2022-09-15T23:15:54.654Z,1.30
2022-09-15T23:18:21.300Z,1.08
2022-09-15T23:20:47.738Z,1.10
2022-09-15T23:23:14.232Z,1.45
2022-09-15T23:25:40.790Z,0.93
2022-09-15T23:28:07.302Z,1.08
2022-09-15T23:30:34.404Z,1.00
2022-09-15T23:33:02.432Z,1.20
2022-09-15T23:35:28.992Z,1.20
2022-09-15T23:37:55.447Z,1.00
2022-09-15T23:40:22.178Z,1.17
2022-09-15T23:42:48.742Z,1.10
2022-09-15T23:45:15.704Z,1.30
2022-09-15T23:47:42.263Z,1.05
2022-09-15T23:50:10.012Z,1.15
2022-09-15T23:52:36.839Z,1.23
2022-09-15T23:55:03.955Z,0.95
2022-09-15T23:57:30.512Z,0.95
2022-09-15T23:59:56.939Z,1.05
